sensor_id;sensor_type;location;lat;lon;timestamp;temperature;humidity
3134;DHT22;1577;49.912;10.924;2022-07-23T17:47:43;12.20;99.90
3134;DHT22;1577;49.912;10.924;2022-07-23T17:50:09;27.60;59.80
3134;DHT22;1577;49.912;10.924;2022-07-23T17:52:51;27.40;59.80
3134;DHT22;1577;49.912;10.924;2022-07-23T17:55:18;27.30;59.70
3134;DHT22;1577;49.912;10.924;2022-07-23T17:57:44;27.20;59.70
3134;DHT22;1577;49.912;10.924;2022-07-23T18:00:13;27.20;59.80
3134;DHT22;1577;49.912;10.924;2022-07-23T18:02:38;27.10;59.70
3134;DHT22;1577;49.912;10.924;2022-07-23T18:05:05;27.00;59.70
3134;DHT22;1577;49.912;10.924;2022-07-23T18:07:31;27.00;59.80
3134;DHT22;1577;49.912;10.924;2022-07-23T18:09:56;27.00;59.80
3134;DHT22;1577;49.912;10.924;2022-07-23T18:12:22;26.90;60.10
3134;DHT22;1577;49.912;10.924;2022-07-23T18:14:48;26.90;59.80
3134;DHT22;1577;49.912;10.924;2022-07-23T18:17:15;26.80;59.90
3134;DHT22;1577;49.912;10.924;2022-07-23T18:19:42;26.80;59.70
3134;DHT22;1577;49.912;10.924;2022-07-23T18:22:09;26.70;59.90
3134;DHT22;1577;49.912;10.924;2022-07-23T18:24:34;26.70;60.00
3134;DHT22;1577;49.912;10.924;2022-07-23T18:27:00;26.60;60.10
3134;DHT22;1577;49.912;10.924;2022-07-23T18:29:26;26.60;60.20
3134;DHT22;1577;49.912;10.924;2022-07-23T18:31:52;26.60;60.60
3134;DHT22;1577;49.912;10.924;2022-07-23T18:34:17;26.50;60.70
3134;DHT22;1577;49.912;10.924;2022-07-23T18:36:43;26.40;60.90
3134;DHT22;1577;49.912;10.924;2022-07-23T18:39:08;26.40;61.20
3134;DHT22;1577;49.912;10.924;2022-07-23T18:41:34;26.40;62.10
3134;DHT22;1577;49.912;10.924;2022-07-23T18:44:00;26.30;61.60
3134;DHT22;1577;49.912;10.924;2022-07-23T18:46:26;26.20;61.70
3134;DHT22;1577;49.912;10.924;2022-07-23T18:48:52;26.20;62.00
3134;DHT22;1577;49.912;10.924;2022-07-23T18:51:18;26.20;62.50
3134;DHT22;1577;49.912;10.924;2022-07-23T18:53:44;26.10;62.50
3134;DHT22;1577;49.912;10.924;2022-07-23T18:56:09;26.00;62.70
3134;DHT22;1577;49.912;10.924;2022-07-23T18:58:35;26.00;63.10
3134;DHT22;1577;49.912;10.924;2022-07-23T19:01:01;25.90;63.20
3134;DHT22;1577;49.912;10.924;2022-07-23T19:03:26;25.90;63.50
3134;DHT22;1577;49.912;10.924;2022-07-23T19:05:52;25.80;63.80
3134;DHT22;1577;49.912;10.924;2022-07-23T19:08:17;25.70;63.80
3134;DHT22;1577;49.912;10.924;2022-07-23T19:10:43;25.70;64.10
3134;DHT22;1577;49.912;10.924;2022-07-23T19:13:10;25.60;65.00
3134;DHT22;1577;49.912;10.924;2022-07-23T19:15:35;25.50;64.40
3134;DHT22;1577;49.912;10.924;2022-07-23T19:18:01;25.50;65.50
3134;DHT22;1577;49.912;10.924;2022-07-23T19:20:27;25.40;65.10
3134;DHT22;1577;49.912;10.924;2022-07-23T19:22:52;25.30;65.20
3134;DHT22;1577;49.912;10.924;2022-07-23T19:25:18;25.30;65.80
3134;DHT22;1577;49.912;10.924;2022-07-23T19:27:44;25.20;65.80
3134;DHT22;1577;49.912;10.924;2022-07-23T19:30:10;25.10;65.90
3134;DHT22;1577;49.912;10.924;2022-07-23T19:32:36;25.10;66.30
3134;DHT22;1577;49.912;10.924;2022-07-23T19:35:03;25.00;66.50
3134;DHT22;1577;49.912;10.924;2022-07-23T19:37:28;25.00;66.80
3134;DHT22;1577;49.912;10.924;2022-07-23T19:39:54;24.90;67.20
3134;DHT22;1577;49.912;10.924;2022-07-23T19:42:20;24.80;67.40
3134;DHT22;1577;49.912;10.924;2022-07-23T19:44:45;24.80;67.60
3134;DHT22;1577;49.912;10.924;2022-07-23T19:47:11;24.70;67.70
3134;DHT22;1577;49.912;10.924;2022-07-23T19:49:37;24.60;67.70
3134;DHT22;1577;49.912;10.924;2022-07-23T19:52:03;24.60;68.10
3134;DHT22;1577;49.912;10.924;2022-07-23T19:54:29;24.50;68.70
3134;DHT22;1577;49.912;10.924;2022-07-23T19:56:54;24.40;69.00
3134;DHT22;1577;49.912;10.924;2022-07-23T19:59:20;24.20;69.20
3134;DHT22;1577;49.912;10.924;2022-07-23T20:01:46;24.20;70.30
3134;DHT22;1577;49.912;10.924;2022-07-23T20:04:12;24.10;70.50
3134;DHT22;1577;49.912;10.924;2022-07-23T20:06:38;24.10;70.90
3134;DHT22;1577;49.912;10.924;2022-07-23T20:09:04;24.00;71.10
3134;DHT22;1577;49.912;10.924;2022-07-23T20:11:30;23.80;71.20
3134;DHT22;1577;49.912;10.924;2022-07-23T20:13:56;23.70;71.90
3134;DHT22;1577;49.912;10.924;2022-07-23T20:16:22;23.70;72.10
3134;DHT22;1577;49.912;10.924;2022-07-23T20:18:48;23.60;72.00
3134;DHT22;1577;49.912;10.924;2022-07-23T20:21:14;23.60;72.00
3134;DHT22;1577;49.912;10.924;2022-07-23T20:23:39;23.60;72.20
3134;DHT22;1577;49.912;10.924;2022-07-23T20:26:05;23.50;72.30
3134;DHT22;1577;49.912;10.924;2022-07-23T20:28:30;23.50;72.30
3134;DHT22;1577;49.912;10.924;2022-07-23T20:30:56;23.40;72.60
3134;DHT22;1577;49.912;10.924;2022-07-23T20:33:23;23.40;73.00
3134;DHT22;1577;49.912;10.924;2022-07-23T20:35:51;23.30;73.00
3134;DHT22;1577;49.912;10.924;2022-07-23T20:38:16;23.30;73.50
3134;DHT22;1577;49.912;10.924;2022-07-23T20:40:42;23.30;73.40
3134;DHT22;1577;49.912;10.924;2022-07-23T20:43:08;23.20;73.80
3134;DHT22;1577;49.912;10.924;2022-07-23T20:45:35;23.20;74.00
3134;DHT22;1577;49.912;10.924;2022-07-23T20:48:01;23.20;74.20
3134;DHT22;1577;49.912;10.924;2022-07-23T20:50:27;23.10;74.20
3134;DHT22;1577;49.912;10.924;2022-07-23T20:52:53;23.10;74.50
3134;DHT22;1577;49.912;10.924;2022-07-23T20:55:19;23.00;74.70
3134;DHT22;1577;49.912;10.924;2022-07-23T20:57:45;23.00;75.00
3134;DHT22;1577;49.912;10.924;2022-07-23T21:00:12;22.90;75.20
3134;DHT22;1577;49.912;10.924;2022-07-23T21:02:39;22.90;76.10
3134;DHT22;1577;49.912;10.924;2022-07-23T21:05:05;22.80;76.50
3134;DHT22;1577;49.912;10.924;2022-07-23T21:07:31;22.70;77.40
3134;DHT22;1577;49.912;10.924;2022-07-23T21:09:57;22.70;78.00
3134;DHT22;1577;49.912;10.924;2022-07-23T21:12:22;22.60;78.70
3134;DHT22;1577;49.912;10.924;2022-07-23T21:14:51;22.60;79.20
3134;DHT22;1577;49.912;10.924;2022-07-23T21:17:17;22.50;79.70
3134;DHT22;1577;49.912;10.924;2022-07-23T21:19:42;22.40;80.00
3134;DHT22;1577;49.912;10.924;2022-07-23T21:22:08;22.30;80.30
3134;DHT22;1577;49.912;10.924;2022-07-23T21:24:34;22.20;80.10
3134;DHT22;1577;49.912;10.924;2022-07-23T21:27:00;22.20;80.30
3134;DHT22;1577;49.912;10.924;2022-07-23T21:29:26;22.10;80.50
3134;DHT22;1577;49.912;10.924;2022-07-23T21:31:51;22.10;81.60
3134;DHT22;1577;49.912;10.924;2022-07-23T21:34:22;21.90;81.00
3134;DHT22;1577;49.912;10.924;2022-07-23T21:36:51;21.90;81.40
3134;DHT22;1577;49.912;10.924;2022-07-23T21:39:17;21.80;81.80
3134;DHT22;1577;49.912;10.924;2022-07-23T21:41:43;21.70;82.40
3134;DHT22;1577;49.912;10.924;2022-07-23T21:44:10;21.60;82.80
3134;DHT22;1577;49.912;10.924;2022-07-23T21:46:36;21.50;83.00
3134;DHT22;1577;49.912;10.924;2022-07-23T21:49:02;21.50;83.40
3134;DHT22;1577;49.912;10.924;2022-07-23T21:51:28;21.40;84.10
3134;DHT22;1577;49.912;10.924;2022-07-23T21:53:55;21.40;84.40
3134;DHT22;1577;49.912;10.924;2022-07-23T21:56:21;21.40;84.80
3134;DHT22;1577;49.912;10.924;2022-07-23T21:58:46;21.20;84.60
3134;DHT22;1577;49.912;10.924;2022-07-23T22:01:12;21.10;85.00
3134;DHT22;1577;49.912;10.924;2022-07-23T22:03:38;21.10;85.10
3134;DHT22;1577;49.912;10.924;2022-07-23T22:06:04;21.10;85.50
3134;DHT22;1577;49.912;10.924;2022-07-23T22:08:30;21.00;85.80
3134;DHT22;1577;49.912;10.924;2022-07-23T22:10:55;20.90;85.70
3134;DHT22;1577;49.912;10.924;2022-07-23T22:13:21;20.90;85.60
3134;DHT22;1577;49.912;10.924;2022-07-23T22:15:47;20.90;86.10
3134;DHT22;1577;49.912;10.924;2022-07-23T22:18:13;20.90;86.80
3134;DHT22;1577;49.912;10.924;2022-07-23T22:20:38;20.90;86.60
3134;DHT22;1577;49.912;10.924;2022-07-23T22:23:04;20.80;87.10
3134;DHT22;1577;49.912;10.924;2022-07-23T22:25:32;20.80;87.60
3134;DHT22;1577;49.912;10.924;2022-07-23T22:27:58;20.80;87.70
3134;DHT22;1577;49.912;10.924;2022-07-23T22:30:24;20.80;87.40
3134;DHT22;1577;49.912;10.924;2022-07-23T22:32:50;20.70;87.70
3134;DHT22;1577;49.912;10.924;2022-07-23T22:35:17;20.70;87.40
3134;DHT22;1577;49.912;10.924;2022-07-23T22:37:45;20.70;87.40
3134;DHT22;1577;49.912;10.924;2022-07-23T22:40:13;20.60;87.20
3134;DHT22;1577;49.912;10.924;2022-07-23T22:42:40;20.50;87.10
3134;DHT22;1577;49.912;10.924;2022-07-23T22:45:07;20.50;87.60
3134;DHT22;1577;49.912;10.924;2022-07-23T22:47:33;20.40;87.80
3134;DHT22;1577;49.912;10.924;2022-07-23T22:49:59;20.40;87.50
3134;DHT22;1577;49.912;10.924;2022-07-23T22:52:24;20.40;88.20
3134;DHT22;1577;49.912;10.924;2022-07-23T22:54:50;20.30;88.40
3134;DHT22;1577;49.912;10.924;2022-07-23T22:57:16;20.30;88.70
3134;DHT22;1577;49.912;10.924;2022-07-23T22:59:42;20.30;88.80
3134;DHT22;1577;49.912;10.924;2022-07-23T23:02:07;20.20;89.00
3134;DHT22;1577;49.912;10.924;2022-07-23T23:04:33;20.20;89.30
3134;DHT22;1577;49.912;10.924;2022-07-23T23:06:59;20.10;89.70
3134;DHT22;1577;49.912;10.924;2022-07-23T23:09:25;20.00;90.00
3134;DHT22;1577;49.912;10.924;2022-07-23T23:11:51;20.10;90.10
3134;DHT22;1577;49.912;10.924;2022-07-23T23:14:17;20.00;90.10
3134;DHT22;1577;49.912;10.924;2022-07-23T23:16:42;19.90;90.20
3134;DHT22;1577;49.912;10.924;2022-07-23T23:19:08;19.80;90.50
3134;DHT22;1577;49.912;10.924;2022-07-23T23:21:34;19.80;90.80
3134;DHT22;1577;49.912;10.924;2022-07-23T23:23:59;19.80;90.80
3134;DHT22;1577;49.912;10.924;2022-07-23T23:26:25;19.70;90.80
3134;DHT22;1577;49.912;10.924;2022-07-23T23:28:50;19.70;91.10
3134;DHT22;1577;49.912;10.924;2022-07-23T23:31:16;19.60;91.30
3134;DHT22;1577;49.912;10.924;2022-07-23T23:33:42;19.60;91.30
3134;DHT22;1577;49.912;10.924;2022-07-23T23:36:08;19.60;91.60
3134;DHT22;1577;49.912;10.924;2022-07-23T23:38:33;19.60;91.40
